sensor_id;sensor_type;location;lat;lon;timestamp;temperature;humidity
26952;DHT22;14507;52.418;13.398;2022-12-29T00:02:12;8.20;99.90
26952;DHT22;14507;52.418;13.398;2022-12-29T00:04:38;8.10;99.90
26952;DHT22;14507;52.418;13.398;2022-12-29T00:07:04;8.10;99.90
26952;DHT22;14507;52.418;13.398;2022-12-29T00:09:30;8.10;99.90
26952;DHT22;14507;52.418;13.398;2022-12-29T00:11:57;8.10;99.90
26952;DHT22;14507;52.418;13.398;2022-12-29T00:14:23;8.20;99.90
26952;DHT22;14507;52.418;13.398;2022-12-29T00:17:07;8.20;99.90
26952;DHT22;14507;52.418;13.398;2022-12-29T00:19:33;8.10;99.90
26952;DHT22;14507;52.418;13.398;2022-12-29T00:22:17;8.20;99.90
26952;DHT22;14507;52.418;13.398;2022-12-29T00:25:02;8.20;99.90
26952;DHT22;14507;52.418;13.398;2022-12-29T00:27:46;8.20;99.90
26952;DHT22;14507;52.418;13.398;2022-12-29T00:30:31;8.20;99.90
26952;DHT22;14507;52.418;13.398;2022-12-29T00:33:17;8.20;99.90
26952;DHT22;14507;52.418;13.398;2022-12-29T00:38:31;8.20;99.90
26952;DHT22;14507;52.418;13.398;2022-12-29T00:41:16;8.20;99.90
26952;DHT22;14507;52.418;13.398;2022-12-29T00:44:01;8.30;99.90
26952;DHT22;14507;52.418;13.398;2022-12-29T00:46:37;8.30;99.90
26952;DHT22;14507;52.418;13.398;2022-12-29T00:49:04;8.30;99.90
26952;DHT22;14507;52.418;13.398;2022-12-29T00:51:48;8.30;99.90
26952;DHT22;14507;52.418;13.398;2022-12-29T00:54:15;8.30;99.90
26952;DHT22;14507;52.418;13.398;2022-12-29T00:56:40;8.40;99.90
26952;DHT22;14507;52.418;13.398;2022-12-29T00:59:08;8.40;99.90
26952;DHT22;14507;52.418;13.398;2022-12-29T01:01:34;8.40;99.90
26952;DHT22;14507;52.418;13.398;2022-12-29T01:04:00;8.40;99.90
26952;DHT22;14507;52.418;13.398;2022-12-29T01:06:26;8.40;99.90
26952;DHT22;14507;52.418;13.398;2022-12-29T01:08:52;8.40;99.90
26952;DHT22;14507;52.418;13.398;2022-12-29T01:11:38;8.30;99.90
26952;DHT22;14507;52.418;13.398;2022-12-29T01:14:04;8.40;99.90
26952;DHT22;14507;52.418;13.398;2022-12-29T01:16:30;8.30;99.90
26952;DHT22;14507;52.418;13.398;2022-12-29T01:18:56;8.40;99.90
26952;DHT22;14507;52.418;13.398;2022-12-29T01:21:21;8.40;99.90
26952;DHT22;14507;52.418;13.398;2022-12-29T01:23:47;8.40;99.90
26952;DHT22;14507;52.418;13.398;2022-12-29T01:26:14;8.40;99.90
26952;DHT22;14507;52.418;13.398;2022-12-29T01:28:40;8.40;99.90
26952;DHT22;14507;52.418;13.398;2022-12-29T01:31:10;8.40;99.90
26952;DHT22;14507;52.418;13.398;2022-12-29T01:33:36;8.50;99.90
26952;DHT22;14507;52.418;13.398;2022-12-29T01:36:04;8.50;99.90
26952;DHT22;14507;52.418;13.398;2022-12-29T01:38:30;8.50;99.90
26952;DHT22;14507;52.418;13.398;2022-12-29T01:40:56;8.60;99.90
26952;DHT22;14507;52.418;13.398;2022-12-29T01:46:04;8.50;99.90
26952;DHT22;14507;52.418;13.398;2022-12-29T01:48:32;8.40;99.90
26952;DHT22;14507;52.418;13.398;2022-12-29T01:50:57;8.40;99.90
26952;DHT22;14507;52.418;13.398;2022-12-29T01:53:27;8.40;99.90
26952;DHT22;14507;52.418;13.398;2022-12-29T01:56:00;8.40;99.90
26952;DHT22;14507;52.418;13.398;2022-12-29T01:58:29;8.40;99.90
26952;DHT22;14507;52.418;13.398;2022-12-29T02:00:56;8.40;99.90
26952;DHT22;14507;52.418;13.398;2022-12-29T02:03:23;8.40;99.90
26952;DHT22;14507;52.418;13.398;2022-12-29T02:05:58;8.40;99.90
26952;DHT22;14507;52.418;13.398;2022-12-29T02:08:27;8.40;99.90
26952;DHT22;14507;52.418;13.398;2022-12-29T02:10:55;8.40;99.90
26952;DHT22;14507;52.418;13.398;2022-12-29T02:13:20;8.40;99.90
26952;DHT22;14507;52.418;13.398;2022-12-29T02:16:04;8.40;99.90
26952;DHT22;14507;52.418;13.398;2022-12-29T02:35:03;8.40;99.90
26952;DHT22;14507;52.418;13.398;2022-12-29T02:37:42;8.50;99.90
26952;DHT22;14507;52.418;13.398;2022-12-29T02:40:16;8.50;99.90
26952;DHT22;14507;52.418;13.398;2022-12-29T02:43:23;8.50;99.90
26952;DHT22;14507;52.418;13.398;2022-12-29T02:52:22;8.50;99.90
26952;DHT22;14507;52.418;13.398;2022-12-29T02:54:54;8.60;99.90
26952;DHT22;14507;52.418;13.398;2022-12-29T03:00:05;8.60;99.90
26952;DHT22;14507;52.418;13.398;2022-12-29T03:03:06;8.70;99.90
26952;DHT22;14507;52.418;13.398;2022-12-29T03:17:57;8.70;99.90
26952;DHT22;14507;52.418;13.398;2022-12-29T03:20:42;8.70;99.90
26952;DHT22;14507;52.418;13.398;2022-12-29T03:23:10;8.90;99.90
26952;DHT22;14507;52.418;13.398;2022-12-29T03:25:47;8.80;99.90
26952;DHT22;14507;52.418;13.398;2022-12-29T03:28:28;8.80;99.90
26952;DHT22;14507;52.418;13.398;2022-12-29T03:30:58;9.10;99.90
26952;DHT22;14507;52.418;13.398;2022-12-29T03:33:30;8.80;99.90
26952;DHT22;14507;52.418;13.398;2022-12-29T03:36:01;9.50;99.90
26952;DHT22;14507;52.418;13.398;2022-12-29T03:38:59;8.30;99.90
26952;DHT22;14507;52.418;13.398;2022-12-29T03:41:35;8.90;99.90
26952;DHT22;14507;52.418;13.398;2022-12-29T03:44:14;8.60;99.90
26952;DHT22;14507;52.418;13.398;2022-12-29T03:46:54;8.90;99.90
26952;DHT22;14507;52.418;13.398;2022-12-29T03:49:28;8.90;99.90
26952;DHT22;14507;52.418;13.398;2022-12-29T03:51:56;8.10;99.90
26952;DHT22;14507;52.418;13.398;2022-12-29T03:54:21;9.00;99.90
26952;DHT22;14507;52.418;13.398;2022-12-29T03:56:50;9.00;99.90
26952;DHT22;14507;52.418;13.398;2022-12-29T03:59:19;9.30;99.90
26952;DHT22;14507;52.418;13.398;2022-12-29T04:01:47;9.00;99.90
26952;DHT22;14507;52.418;13.398;2022-12-29T04:04:13;9.10;99.90
26952;DHT22;14507;52.418;13.398;2022-12-29T04:06:39;9.00;99.90
26952;DHT22;14507;52.418;13.398;2022-12-29T04:09:05;9.10;99.90
26952;DHT22;14507;52.418;13.398;2022-12-29T04:11:30;9.10;99.90
26952;DHT22;14507;52.418;13.398;2022-12-29T04:13:56;9.10;99.90
26952;DHT22;14507;52.418;13.398;2022-12-29T04:16:22;9.20;99.90
26952;DHT22;14507;52.418;13.398;2022-12-29T04:18:47;9.10;99.90
26952;DHT22;14507;52.418;13.398;2022-12-29T04:21:13;9.10;99.90
26952;DHT22;14507;52.418;13.398;2022-12-29T04:23:39;9.10;99.90
26952;DHT22;14507;52.418;13.398;2022-12-29T04:26:08;9.20;99.90
26952;DHT22;14507;52.418;13.398;2022-12-29T04:28:35;9.20;99.90
26952;DHT22;14507;52.418;13.398;2022-12-29T04:31:03;9.20;99.90
26952;DHT22;14507;52.418;13.398;2022-12-29T04:33:29;9.20;99.90
26952;DHT22;14507;52.418;13.398;2022-12-29T04:35:55;9.20;99.90
26952;DHT22;14507;52.418;13.398;2022-12-29T04:38:22;9.20;99.90
26952;DHT22;14507;52.418;13.398;2022-12-29T04:40:48;9.20;99.90
26952;DHT22;14507;52.418;13.398;2022-12-29T04:43:14;9.20;99.90
26952;DHT22;14507;52.418;13.398;2022-12-29T04:45:44;9.30;99.90
26952;DHT22;14507;52.418;13.398;2022-12-29T04:48:10;9.20;99.90
26952;DHT22;14507;52.418;13.398;2022-12-29T04:50:36;9.30;99.90
26952;DHT22;14507;52.418;13.398;2022-12-29T04:53:01;9.30;99.90
26952;DHT22;14507;52.418;13.398;2022-12-29T04:55:27;9.20;99.90
26952;DHT22;14507;52.418;13.398;2022-12-29T04:57:53;9.30;99.90
26952;DHT22;14507;52.418;13.398;2022-12-29T05:00:19;9.30;99.90
26952;DHT22;14507;52.418;13.398;2022-12-29T05:02:44;9.30;99.90
26952;DHT22;14507;52.418;13.398;2022-12-29T05:05:10;9.30;99.90
26952;DHT22;14507;52.418;13.398;2022-12-29T05:07:36;9.40;99.90
26952;DHT22;14507;52.418;13.398;2022-12-29T05:10:02;9.40;99.90
26952;DHT22;14507;52.418;13.398;2022-12-29T05:12:32;9.40;99.90
26952;DHT22;14507;52.418;13.398;2022-12-29T05:14:58;9.50;99.90
26952;DHT22;14507;52.418;13.398;2022-12-29T05:17:24;9.50;99.90
26952;DHT22;14507;52.418;13.398;2022-12-29T05:19:50;9.50;99.90
26952;DHT22;14507;52.418;13.398;2022-12-29T05:22:16;9.50;99.90
26952;DHT22;14507;52.418;13.398;2022-12-29T05:24:42;9.50;99.90
26952;DHT22;14507;52.418;13.398;2022-12-29T05:27:07;9.50;99.90
26952;DHT22;14507;52.418;13.398;2022-12-29T05:29:33;9.50;99.90
26952;DHT22;14507;52.418;13.398;2022-12-29T05:31:59;9.50;99.90
26952;DHT22;14507;52.418;13.398;2022-12-29T05:34:24;9.60;99.90
26952;DHT22;14507;52.418;13.398;2022-12-29T05:36:50;9.60;99.90
26952;DHT22;14507;52.418;13.398;2022-12-29T05:39:16;9.60;99.90
26952;DHT22;14507;52.418;13.398;2022-12-29T05:41:41;9.60;99.90
26952;DHT22;14507;52.418;13.398;2022-12-29T05:44:07;9.70;99.90
26952;DHT22;14507;52.418;13.398;2022-12-29T05:46:33;9.70;99.90
26952;DHT22;14507;52.418;13.398;2022-12-29T05:48:59;9.70;99.90
26952;DHT22;14507;52.418;13.398;2022-12-29T05:51:24;9.80;99.90
26952;DHT22;14507;52.418;13.398;2022-12-29T05:53:50;9.90;99.90
26952;DHT22;14507;52.418;13.398;2022-12-29T05:56:16;9.90;99.90
26952;DHT22;14507;52.418;13.398;2022-12-29T05:58:41;9.90;99.90
26952;DHT22;14507;52.418;13.398;2022-12-29T06:01:07;10.00;99.90
26952;DHT22;14507;52.418;13.398;2022-12-29T06:03:33;10.10;99.90
26952;DHT22;14507;52.418;13.398;2022-12-29T06:05:58;10.10;99.90
26952;DHT22;14507;52.418;13.398;2022-12-29T06:08:24;10.00;99.90
26952;DHT22;14507;52.418;13.398;2022-12-29T06:10:50;10.00;99.90
26952;DHT22;14507;52.418;13.398;2022-12-29T06:13:16;10.00;99.90
26952;DHT22;14507;52.418;13.398;2022-12-29T06:15:42;10.00;99.90
26952;DHT22;14507;52.418;13.398;2022-12-29T06:18:07;10.00;99.90
26952;DHT22;14507;52.418;13.398;2022-12-29T06:20:33;10.00;99.90
26952;DHT22;14507;52.418;13.398;2022-12-29T06:22:59;10.00;99.90
26952;DHT22;14507;52.418;13.398;2022-12-29T06:25:24;10.00;99.90
26952;DHT22;14507;52.418;13.398;2022-12-29T06:27:50;10.10;99.90
26952;DHT22;14507;52.418;13.398;2022-12-29T06:30:16;10.10;99.90
26952;DHT22;14507;52.418;13.398;2022-12-29T06:32:42;10.10;99.90
26952;DHT22;14507;52.418;13.398;2022-12-29T06:35:08;10.10;99.90
26952;DHT22;14507;52.418;13.398;2022-12-29T06:37:34;10.10;99.90
26952;DHT22;14507;52.418;13.398;2022-12-29T06:40:00;10.10;99.90
26952;DHT22;14507;52.418;13.398;2022-12-29T06:42:25;10.10;99.90
26952;DHT22;14507;52.418;13.398;2022-12-29T06:44:51;10.10;99.90
26952;DHT22;14507;52.418;13.398;2022-12-29T06:47:17;10.10;99.90
26952;DHT22;14507;52.418;13.398;2022-12-29T06:49:44;10.10;99.90
26952;DHT22;14507;52.418;13.398;2022-12-29T06:52:09;10.10;99.90
26952;DHT22;14507;52.418;13.398;2022-12-29T06:54:35;10.10;99.90
26952;DHT22;14507;52.418;13.398;2022-12-29T06:57:01;10.10;99.90
26952;DHT22;14507;52.418;13.398;2022-12-29T06:59:26;10.10;99.90
26952;DHT22;14507;52.418;13.398;2022-12-29T07:01:52;10.10;99.90
26952;DHT22;14507;52.418;13.398;2022-12-29T07:04:18;10.10;99.90
26952;DHT22;14507;52.418;13.398;2022-12-29T07:06:44;10.10;99.90
26952;DHT22;14507;52.418;13.398;2022-12-29T07:09:10;10.10;99.90
26952;DHT22;14507;52.418;13.398;2022-12-29T07:11:36;10.20;99.90
26952;DHT22;14507;52.418;13.398;2022-12-29T07:14:02;10.10;99.90
26952;DHT22;14507;52.418;13.398;2022-12-29T07:16:28;10.10;99.90
26952;DHT22;14507;52.418;13.398;2022-12-29T07:18:56;10.10;99.90
26952;DHT22;14507;52.418;13.398;2022-12-29T07:21:22;10.10;99.90
26952;DHT22;14507;52.418;13.398;2022-12-29T07:23:48;10.10;99.90
26952;DHT22;14507;52.418;13.398;2022-12-29T07:26:14;10.10;99.90
26952;DHT22;14507;52.418;13.398;2022-12-29T07:28:43;10.10;99.90
26952;DHT22;14507;52.418;13.398;2022-12-29T07:31:16;10.20;99.90
26952;DHT22;14507;52.418;13.398;2022-12-29T07:33:43;10.20;99.90
26952;DHT22;14507;52.418;13.398;2022-12-29T07:36:10;10.20;99.90
26952;DHT22;14507;52.418;13.398;2022-12-29T07:38:35;10.20;99.90
26952;DHT22;14507;52.418;13.398;2022-12-29T07:41:01;10.30;99.90
26952;DHT22;14507;52.418;13.398;2022-12-29T07:43:27;10.20;99.90
26952;DHT22;14507;52.418;13.398;2022-12-29T07:45:53;10.20;99.90
26952;DHT22;14507;52.418;13.398;2022-12-29T07:48:19;10.30;99.90
26952;DHT22;14507;52.418;13.398;2022-12-29T07:50:44;10.30;99.90
26952;DHT22;14507;52.418;13.398;2022-12-29T07:53:10;10.30;99.90
26952;DHT22;14507;52.418;13.398;2022-12-29T07:55:36;10.40;99.90
26952;DHT22;14507;52.418;13.398;2022-12-29T07:58:01;10.40;99.90
26952;DHT22;14507;52.418;13.398;2022-12-29T08:00:27;10.40;99.90
26952;DHT22;14507;52.418;13.398;2022-12-29T08:02:53;10.50;99.90
26952;DHT22;14507;52.418;13.398;2022-12-29T08:05:19;10.50;99.90
26952;DHT22;14507;52.418;13.398;2022-12-29T08:07:45;10.50;99.90
26952;DHT22;14507;52.418;13.398;2022-12-29T08:10:12;10.50;99.90
26952;DHT22;14507;52.418;13.398;2022-12-29T08:12:38;10.50;99.90
26952;DHT22;14507;52.418;13.398;2022-12-29T08:15:04;10.50;99.90
26952;DHT22;14507;52.418;13.398;2022-12-29T08:17:30;10.50;99.90
26952;DHT22;14507;52.418;13.398;2022-12-29T08:19:56;10.60;99.90
26952;DHT22;14507;52.418;13.398;2022-12-29T08:22:22;10.60;99.90
26952;DHT22;14507;52.418;13.398;2022-12-29T08:24:48;10.60;99.90
26952;DHT22;14507;52.418;13.398;2022-12-29T08:27:14;10.70;99.90
26952;DHT22;14507;52.418;13.398;2022-12-29T08:29:39;10.70;99.90
26952;DHT22;14507;52.418;13.398;2022-12-29T08:32:05;10.70;99.90
26952;DHT22;14507;52.418;13.398;2022-12-29T08:34:32;10.70;99.90
26952;DHT22;14507;52.418;13.398;2022-12-29T08:36:58;10.70;99.90
26952;DHT22;14507;52.418;13.398;2022-12-29T08:39:23;10.60;99.90
26952;DHT22;14507;52.418;13.398;2022-12-29T08:41:49;10.60;99.90
26952;DHT22;14507;52.418;13.398;2022-12-29T08:44:14;10.60;99.90
26952;DHT22;14507;52.418;13.398;2022-12-29T08:46:40;10.60;99.90
26952;DHT22;14507;52.418;13.398;2022-12-29T08:49:06;10.60;99.90
26952;DHT22;14507;52.418;13.398;2022-12-29T08:51:31;10.60;99.90
26952;DHT22;14507;52.418;13.398;2022-12-29T08:53:58;10.60;99.90
26952;DHT22;14507;52.418;13.398;2022-12-29T08:56:23;10.60;99.90
26952;DHT22;14507;52.418;13.398;2022-12-29T08:58:50;10.60;99.90
26952;DHT22;14507;52.418;13.398;2022-12-29T09:01:16;10.70;99.90
26952;DHT22;14507;52.418;13.398;2022-12-29T09:03:42;10.70;99.90
26952;DHT22;14507;52.418;13.398;2022-12-29T09:06:08;10.70;99.90
26952;DHT22;14507;52.418;13.398;2022-12-29T09:08:34;10.70;99.90
26952;DHT22;14507;52.418;13.398;2022-12-29T09:11:18;10.70;99.90
26952;DHT22;14507;52.418;13.398;2022-12-29T09:13:44;10.70;99.90
26952;DHT22;14507;52.418;13.398;2022-12-29T09:16:10;10.80;99.90
26952;DHT22;14507;52.418;13.398;2022-12-29T09:18:36;10.80;99.90
26952;DHT22;14507;52.418;13.398;2022-12-29T09:21:04;10.80;99.90
26952;DHT22;14507;52.418;13.398;2022-12-29T09:23:30;10.80;99.90
26952;DHT22;14507;52.418;13.398;2022-12-29T09:25:56;10.80;99.90
26952;DHT22;14507;52.418;13.398;2022-12-29T09:28:22;10.80;99.90
26952;DHT22;14507;52.418;13.398;2022-12-29T09:30:49;10.90;99.90
26952;DHT22;14507;52.418;13.398;2022-12-29T09:33:15;10.90;99.90
26952;DHT22;14507;52.418;13.398;2022-12-29T09:35:45;11.00;99.90
26952;DHT22;14507;52.418;13.398;2022-12-29T09:38:15;11.00;99.90
26952;DHT22;14507;52.418;13.398;2022-12-29T09:40:41;11.10;99.90
26952;DHT22;14507;52.418;13.398;2022-12-29T09:43:42;11.10;99.90
26952;DHT22;14507;52.418;13.398;2022-12-29T09:46:32;11.20;99.90
26952;DHT22;14507;52.418;13.398;2022-12-29T09:51:48;11.30;99.90
26952;DHT22;14507;52.418;13.398;2022-12-29T09:54:36;11.40;99.90
26952;DHT22;14507;52.418;13.398;2022-12-29T09:57:02;11.40;99.90
26952;DHT22;14507;52.418;13.398;2022-12-29T09:59:39;11.40;99.90
26952;DHT22;14507;52.418;13.398;2022-12-29T10:04:56;11.60;99.90
26952;DHT22;14507;52.418;13.398;2022-12-29T10:10:20;11.80;99.90
26952;DHT22;14507;52.418;13.398;2022-12-29T10:21:59;12.00;99.90
26952;DHT22;14507;52.418;13.398;2022-12-29T10:24:14;12.10;99.90
26952;DHT22;14507;52.418;13.398;2022-12-29T10:26:43;12.20;99.90
26952;DHT22;14507;52.418;13.398;2022-12-29T10:29:41;12.20;99.90
26952;DHT22;14507;52.418;13.398;2022-12-29T10:32:25;12.20;99.90
26952;DHT22;14507;52.418;13.398;2022-12-29T10:34:55;12.30;99.90
26952;DHT22;14507;52.418;13.398;2022-12-29T10:37:34;12.20;99.90
26952;DHT22;14507;52.418;13.398;2022-12-29T10:40:14;12.30;99.90
26952;DHT22;14507;52.418;13.398;2022-12-29T10:42:45;12.30;99.90
26952;DHT22;14507;52.418;13.398;2022-12-29T10:45:15;12.30;99.90
26952;DHT22;14507;52.418;13.398;2022-12-29T10:50:25;12.40;99.90
26952;DHT22;14507;52.418;13.398;2022-12-29T10:52:52;12.40;99.90
26952;DHT22;14507;52.418;13.398;2022-12-29T10:55:30;12.50;99.90
26952;DHT22;14507;52.418;13.398;2022-12-29T10:58:02;12.60;99.90
26952;DHT22;14507;52.418;13.398;2022-12-29T11:00:30;12.70;99.90
26952;DHT22;14507;52.418;13.398;2022-12-29T11:05:56;12.70;99.90
26952;DHT22;14507;52.418;13.398;2022-12-29T11:08:26;12.70;99.90
26952;DHT22;14507;52.418;13.398;2022-12-29T11:11:08;12.70;99.90
26952;DHT22;14507;52.418;13.398;2022-12-29T11:13:49;12.70;99.90
26952;DHT22;14507;52.418;13.398;2022-12-29T11:16:27;12.70;99.90
26952;DHT22;14507;52.418;13.398;2022-12-29T11:18:55;12.70;99.90
26952;DHT22;14507;52.418;13.398;2022-12-29T11:21:35;12.60;99.90
26952;DHT22;14507;52.418;13.398;2022-12-29T11:24:18;12.60;99.90
26952;DHT22;14507;52.418;13.398;2022-12-29T11:26:44;12.60;99.90
26952;DHT22;14507;52.418;13.398;2022-12-29T11:29:16;12.50;99.90
26952;DHT22;14507;52.418;13.398;2022-12-29T11:31:43;12.40;99.90
26952;DHT22;14507;52.418;13.398;2022-12-29T11:34:09;12.30;99.90
26952;DHT22;14507;52.418;13.398;2022-12-29T11:36:41;12.30;99.90
26952;DHT22;14507;52.418;13.398;2022-12-29T11:41:55;12.10;99.90
26952;DHT22;14507;52.418;13.398;2022-12-29T11:44:21;12.10;99.90
26952;DHT22;14507;52.418;13.398;2022-12-29T11:46:49;11.90;99.90
26952;DHT22;14507;52.418;13.398;2022-12-29T11:49:22;11.90;99.90
26952;DHT22;14507;52.418;13.398;2022-12-29T11:51:50;11.80;99.90
26952;DHT22;14507;52.418;13.398;2022-12-29T11:54:27;11.70;99.90
26952;DHT22;14507;52.418;13.398;2022-12-29T11:56:54;11.60;99.90
26952;DHT22;14507;52.418;13.398;2022-12-29T12:01:53;11.40;99.90
26952;DHT22;14507;52.418;13.398;2022-12-29T12:04:23;11.40;99.90
26952;DHT22;14507;52.418;13.398;2022-12-29T12:09:37;11.30;99.90
26952;DHT22;14507;52.418;13.398;2022-12-29T12:12:05;11.20;99.90
26952;DHT22;14507;52.418;13.398;2022-12-29T12:14:43;11.10;99.90
26952;DHT22;14507;52.418;13.398;2022-12-29T12:17:16;11.00;99.90
26952;DHT22;14507;52.418;13.398;2022-12-29T12:20:00;11.00;99.90
26952;DHT22;14507;52.418;13.398;2022-12-29T12:22:34;10.90;99.90
26952;DHT22;14507;52.418;13.398;2022-12-29T12:25:19;10.70;99.90
26952;DHT22;14507;52.418;13.398;2022-12-29T12:27:57;10.80;99.90
26952;DHT22;14507;52.418;13.398;2022-12-29T12:30:28;10.70;99.90
26952;DHT22;14507;52.418;13.398;2022-12-29T12:33:04;10.70;99.90
26952;DHT22;14507;52.418;13.398;2022-12-29T12:36:02;10.60;99.90
26952;DHT22;14507;52.418;13.398;2022-12-29T12:44:18;10.50;99.90
26952;DHT22;14507;52.418;13.398;2022-12-29T12:46:56;10.50;99.90
26952;DHT22;14507;52.418;13.398;2022-12-29T12:55:39;10.40;99.90
26952;DHT22;14507;52.418;13.398;2022-12-29T13:01:03;10.40;99.90
26952;DHT22;14507;52.418;13.398;2022-12-29T13:14:59;10.50;99.90
26952;DHT22;14507;52.418;13.398;2022-12-29T13:23:37;10.60;99.90
26952;DHT22;14507;52.418;13.398;2022-12-29T13:37:09;10.60;99.90
26952;DHT22;14507;52.418;13.398;2022-12-29T13:40:01;10.60;99.90
26952;DHT22;14507;52.418;13.398;2022-12-29T13:42:29;10.50;99.90
26952;DHT22;14507;52.418;13.398;2022-12-29T13:45:00;10.60;99.90
26952;DHT22;14507;52.418;13.398;2022-12-29T13:47:42;10.50;99.90
26952;DHT22;14507;52.418;13.398;2022-12-29T13:50:16;10.50;99.90
26952;DHT22;14507;52.418;13.398;2022-12-29T13:52:51;10.50;99.90
26952;DHT22;14507;52.418;13.398;2022-12-29T13:55:53;10.50;99.90
26952;DHT22;14507;52.418;13.398;2022-12-29T13:58:23;10.50;99.90
26952;DHT22;14507;52.418;13.398;2022-12-29T14:08:39;10.40;99.90
26952;DHT22;14507;52.418;13.398;2022-12-29T14:11:32;10.30;99.90
26952;DHT22;14507;52.418;13.398;2022-12-29T14:14:09;10.30;99.90
26952;DHT22;14507;52.418;13.398;2022-12-29T14:16:37;10.30;99.90
26952;DHT22;14507;52.418;13.398;2022-12-29T14:19:15;10.30;99.90
26952;DHT22;14507;52.418;13.398;2022-12-29T14:21:54;10.30;99.90
26952;DHT22;14507;52.418;13.398;2022-12-29T14:42:31;10.30;99.90
26952;DHT22;14507;52.418;13.398;2022-12-29T14:45:47;10.30;99.90
26952;DHT22;14507;52.418;13.398;2022-12-29T14:47:52;10.30;99.90
26952;DHT22;14507;52.418;13.398;2022-12-29T14:53:05;10.20;99.90
26952;DHT22;14507;52.418;13.398;2022-12-29T14:55:41;10.30;99.90
26952;DHT22;14507;52.418;13.398;2022-12-29T14:58:38;10.30;99.90
26952;DHT22;14507;52.418;13.398;2022-12-29T15:03:50;10.30;99.90
26952;DHT22;14507;52.418;13.398;2022-12-29T15:06:17;10.20;99.90
26952;DHT22;14507;52.418;13.398;2022-12-29T15:09:10;10.20;99.90
26952;DHT22;14507;52.418;13.398;2022-12-29T15:14:31;10.20;99.90
26952;DHT22;14507;52.418;13.398;2022-12-29T15:16:57;10.20;99.90
26952;DHT22;14507;52.418;13.398;2022-12-29T15:19:25;10.20;99.90
26952;DHT22;14507;52.418;13.398;2022-12-29T15:21:52;10.20;99.90
26952;DHT22;14507;52.418;13.398;2022-12-29T15:24:19;10.20;99.90
26952;DHT22;14507;52.418;13.398;2022-12-29T15:26:47;10.10;99.90
26952;DHT22;14507;52.418;13.398;2022-12-29T15:29:46;10.10;99.90
26952;DHT22;14507;52.418;13.398;2022-12-29T15:34:41;10.00;99.90
26952;DHT22;14507;52.418;13.398;2022-12-29T15:37:08;10.00;99.90
26952;DHT22;14507;52.418;13.398;2022-12-29T15:39:34;10.00;99.90
26952;DHT22;14507;52.418;13.398;2022-12-29T15:42:09;10.00;99.90
26952;DHT22;14507;52.418;13.398;2022-12-29T15:44:44;9.90;99.90
26952;DHT22;14507;52.418;13.398;2022-12-29T15:47:21;9.90;99.90
26952;DHT22;14507;52.418;13.398;2022-12-29T15:49:49;9.90;99.90
26952;DHT22;14507;52.418;13.398;2022-12-29T15:52:20;9.80;99.90
26952;DHT22;14507;52.418;13.398;2022-12-29T15:54:48;9.80;99.90
26952;DHT22;14507;52.418;13.398;2022-12-29T15:57:24;9.70;99.90
26952;DHT22;14507;52.418;13.398;2022-12-29T15:59:51;9.70;99.90
26952;DHT22;14507;52.418;13.398;2022-12-29T16:02:17;9.70;99.90
26952;DHT22;14507;52.418;13.398;2022-12-29T16:04:44;9.70;99.90
26952;DHT22;14507;52.418;13.398;2022-12-29T16:07:28;9.70;99.90
26952;DHT22;14507;52.418;13.398;2022-12-29T16:10:02;9.70;99.90
26952;DHT22;14507;52.418;13.398;2022-12-29T16:12:36;9.70;99.90
26952;DHT22;14507;52.418;13.398;2022-12-29T16:15:04;9.70;99.90
26952;DHT22;14507;52.418;13.398;2022-12-29T16:17:40;9.70;99.90
26952;DHT22;14507;52.418;13.398;2022-12-29T16:20:19;9.70;99.90
26952;DHT22;14507;52.418;13.398;2022-12-29T16:23:03;9.80;99.90
26952;DHT22;14507;52.418;13.398;2022-12-29T16:25:31;9.80;99.90
26952;DHT22;14507;52.418;13.398;2022-12-29T16:27:58;9.80;99.90
26952;DHT22;14507;52.418;13.398;2022-12-29T16:30:26;9.80;99.90
26952;DHT22;14507;52.418;13.398;2022-12-29T16:32:54;9.80;99.90
26952;DHT22;14507;52.418;13.398;2022-12-29T16:35:44;9.80;99.90
26952;DHT22;14507;52.418;13.398;2022-12-29T16:38:20;9.80;99.90
26952;DHT22;14507;52.418;13.398;2022-12-29T16:40:55;9.80;99.90
26952;DHT22;14507;52.418;13.398;2022-12-29T16:43:27;9.90;99.90
26952;DHT22;14507;52.418;13.398;2022-12-29T16:50:50;9.90;99.90
26952;DHT22;14507;52.418;13.398;2022-12-29T16:53:37;9.80;99.90
26952;DHT22;14507;52.418;13.398;2022-12-29T16:56:15;9.80;99.90
26952;DHT22;14507;52.418;13.398;2022-12-29T16:58:50;9.80;99.90
26952;DHT22;14507;52.418;13.398;2022-12-29T17:01:19;9.80;99.90
26952;DHT22;14507;52.418;13.398;2022-12-29T17:03:52;9.80;99.90
26952;DHT22;14507;52.418;13.398;2022-12-29T17:06:20;9.80;99.90
26952;DHT22;14507;52.418;13.398;2022-12-29T17:08:46;9.80;99.90
26952;DHT22;14507;52.418;13.398;2022-12-29T17:14:15;9.80;99.90
26952;DHT22;14507;52.418;13.398;2022-12-29T17:16:42;9.80;99.90
26952;DHT22;14507;52.418;13.398;2022-12-29T17:19:15;9.80;99.90
26952;DHT22;14507;52.418;13.398;2022-12-29T17:21:41;9.80;99.90
26952;DHT22;14507;52.418;13.398;2022-12-29T17:24:17;9.80;99.90
26952;DHT22;14507;52.418;13.398;2022-12-29T17:26:45;9.90;99.90
26952;DHT22;14507;52.418;13.398;2022-12-29T17:29:29;9.90;99.90
26952;DHT22;14507;52.418;13.398;2022-12-29T17:31:57;9.90;99.90
26952;DHT22;14507;52.418;13.398;2022-12-29T17:34:22;10.00;99.90
26952;DHT22;14507;52.418;13.398;2022-12-29T17:36:48;10.00;99.90
26952;DHT22;14507;52.418;13.398;2022-12-29T17:39:14;10.10;99.90
26952;DHT22;14507;52.418;13.398;2022-12-29T17:41:39;10.10;99.90
26952;DHT22;14507;52.418;13.398;2022-12-29T17:44:05;10.10;99.90
26952;DHT22;14507;52.418;13.398;2022-12-29T17:46:33;10.10;99.90
26952;DHT22;14507;52.418;13.398;2022-12-29T17:48:59;10.10;99.90
26952;DHT22;14507;52.418;13.398;2022-12-29T17:51:24;10.10;99.90
26952;DHT22;14507;52.418;13.398;2022-12-29T17:53:50;10.10;99.90
26952;DHT22;14507;52.418;13.398;2022-12-29T17:56:17;10.00;99.90
26952;DHT22;14507;52.418;13.398;2022-12-29T17:58:43;10.00;99.90
26952;DHT22;14507;52.418;13.398;2022-12-29T18:01:10;10.00;99.90
26952;DHT22;14507;52.418;13.398;2022-12-29T18:03:38;9.90;99.90
26952;DHT22;14507;52.418;13.398;2022-12-29T18:06:06;9.80;99.90
26952;DHT22;14507;52.418;13.398;2022-12-29T18:08:34;9.80;99.90
26952;DHT22;14507;52.418;13.398;2022-12-29T18:11:01;9.80;99.90
26952;DHT22;14507;52.418;13.398;2022-12-29T18:13:29;9.70;99.90
26952;DHT22;14507;52.418;13.398;2022-12-29T18:15:55;9.70;99.90
26952;DHT22;14507;52.418;13.398;2022-12-29T18:18:23;9.70;99.90
26952;DHT22;14507;52.418;13.398;2022-12-29T18:20:51;9.70;99.90
26952;DHT22;14507;52.418;13.398;2022-12-29T18:23:21;9.60;99.90
26952;DHT22;14507;52.418;13.398;2022-12-29T18:28:25;9.50;99.90